Time;durP1;ratioP1;P1;durP2;ratioP2;P2;SDS_P1;SDS_P2;PMS_P1;PMS_P2;Temp;Humidity;BMP_temperature;BMP_pressure;BME280_temperature;BME280_humidity;BME280_pressure;Samples;Min_cycle;Max_cycle;Signal;HPM_P1;HPM_P2
2022/06/14 00:03:02;;;;;;;8.50;3.60;;;;;;;13.44;100.00;99326.13;5017943;28;20057;-70
2022/06/14 00:05:28;;;;;;;5.85;3.17;;;;;;;13.30;100.00;99301.66;5021263;28;20025;-70
2022/06/14 00:07:53;;;;;;;7.72;3.55;;;;;;;13.34;100.00;99311.09;5022624;28;20032;-70
2022/06/14 00:10:18;;;;;;;5.25;3.10;;;;;;;13.34;100.00;99307.53;5016646;28;20107;-71
2022/06/14 00:12:44;;;;;;;9.25;3.40;;;;;;;13.38;100.00;99325.09;5013264;28;20060;-71
2022/06/14 00:15:10;;;;;;;5.00;3.30;;;;;;;13.36;100.00;99314.44;5010503;28;20026;-71
2022/06/14 00:17:35;;;;;;;6.68;3.13;;;;;;;13.37;100.00;99312.56;5011867;28;20025;-70
2022/06/14 00:20:01;;;;;;;8.63;3.70;;;;;;;13.34;100.00;99321.13;5012065;28;20026;-71
2022/06/14 00:22:26;;;;;;;7.10;3.30;;;;;;;13.22;100.00;99299.13;5009896;28;20026;-70
2022/06/14 00:24:55;;;;;;;7.88;3.50;;;;;;;13.23;100.00;99308.97;5017165;28;20035;-69
2022/06/14 00:27:20;;;;;;;8.63;4.10;;;;;;;13.25;100.00;99315.00;5009744;28;20268;-70
2022/06/14 00:29:45;;;;;;;8.63;3.63;;;;;;;13.22;100.00;99320.03;5012781;28;20372;-70
2022/06/14 00:32:11;;;;;;;6.60;3.03;;;;;;;13.15;100.00;99301.84;5017822;28;20039;-70
2022/06/14 00:34:36;;;;;;;9.43;3.50;;;;;;;13.22;100.00;99323.56;5030036;28;20029;-70
2022/06/14 00:37:02;;;;;;;7.40;3.53;;;;;;;13.15;100.00;99306.44;5010309;28;20053;-70
2022/06/14 00:39:27;;;;;;;5.28;3.70;;;;;;;13.15;100.00;99320.00;5014079;28;20080;-69
2022/06/14 00:41:55;;;;;;;8.15;3.42;;;;;;;13.11;100.00;99314.16;5009019;28;20025;-71
2022/06/14 00:44:26;;;;;;;11.27;4.10;;;;;;;13.03;100.00;99321.69;5001266;28;20033;-70
2022/06/14 00:47:09;;;;;;;9.20;3.33;;;;;;;12.92;100.00;99315.00;5009740;28;20030;-69
2022/06/14 00:49:48;;;;;;;7.85;3.58;;;;;;;13.05;100.00;99303.31;5012673;28;20030;-70
2022/06/14 00:52:22;;;;;;;8.55;3.58;;;;;;;13.08;100.00;99292.03;5009413;28;20022;-69
2022/06/14 00:54:52;;;;;;;7.50;3.67;;;;;;;13.08;100.00;99298.28;5006705;28;20483;-70
2022/06/14 00:57:24;;;;;;;8.70;3.85;;;;;;;13.03;100.00;99310.81;5002768;28;20115;-70
2022/06/14 00:59:57;;;;;;;8.85;3.80;;;;;;;12.93;100.00;99317.47;5010792;28;20022;-70
2022/06/14 01:02:30;;;;;;;8.98;4.25;;;;;;;12.87;100.00;99296.59;5014692;28;20041;-70
2022/06/14 01:05:01;;;;;;;10.75;4.70;;;;;;;12.67;100.00;99296.53;5011734;28;20154;-70
2022/06/14 01:07:29;;;;;;;8.60;4.20;;;;;;;12.78;100.00;99314.09;5003154;28;20034;-69
2022/06/14 01:10:08;;;;;;;10.57;4.25;;;;;;;12.62;100.00;99315.31;5011971;28;20030;-70
2022/06/14 01:12:40;;;;;;;7.15;4.40;;;;;;;12.46;100.00;99305.66;5008776;28;20025;-70
2022/06/14 01:15:14;;;;;;;11.13;5.03;;;;;;;12.37;100.00;99317.75;5013444;28;20025;-70
2022/06/14 01:17:45;;;;;;;10.85;5.15;;;;;;;12.25;100.00;99316.63;5011116;28;20091;-71
2022/06/14 01:20:15;;;;;;;10.73;5.13;;;;;;;12.13;100.00;99316.38;5008634;28;20060;-69
2022/06/14 01:22:41;;;;;;;18.73;4.60;;;;;;;12.00;100.00;99309.00;5010918;28;20157;-71
2022/06/14 01:25:08;;;;;;;10.38;4.72;;;;;;;11.86;100.00;99299.09;5007065;28;20203;-69
2022/06/14 01:27:36;;;;;;;10.18;4.75;;;;;;;11.92;100.00;99294.75;5011270;28;20022;-70
2022/06/14 01:30:11;;;;;;;12.82;4.75;;;;;;;11.96;100.00;99306.88;5005815;28;20029;-70
2022/06/14 01:32:50;;;;;;;9.20;4.70;;;;;;;11.97;100.00;99304.00;5009062;28;20105;-70
2022/06/14 01:35:20;;;;;;;10.57;4.40;;;;;;;11.88;100.00;99285.34;5009557;28;20109;-70
2022/06/14 01:37:49;;;;;;;5.38;3.85;;;;;;;11.77;100.00;99290.28;5010384;28;20034;-70
2022/06/14 01:40:15;;;;;;;8.20;4.30;;;;;;;11.59;100.00;99279.09;5009422;28;20365;-70
2022/06/14 01:43:37;;;;;;;11.07;4.20;;;;;;;11.61;100.00;99290.59;5005736;28;20036;-70
2022/06/14 01:46:10;;;;;;;10.80;4.40;;;;;;;11.57;100.00;99290.13;5000282;28;20049;-69
2022/06/14 01:48:47;;;;;;;7.88;4.18;;;;;;;11.59;100.00;99288.06;5002843;28;20029;-70
2022/06/14 01:51:51;;;;;;;10.52;5.03;;;;;;;11.55;100.00;99291.34;5007298;28;20037;-70
2022/06/14 01:54:38;;;;;;;9.70;4.85;;;;;;;11.55;100.00;99281.38;5004115;28;20080;-70
2022/06/14 01:57:11;;;;;;;15.70;4.45;;;;;;;11.46;100.00;99287.13;5011613;28;20132;-70
2022/06/14 01:59:43;;;;;;;10.75;4.50;;;;;;;11.40;100.00;99300.44;5016398;22;20050;-63
2022/06/14 02:02:16;;;;;;;13.07;4.80;;;;;;;11.27;100.00;99285.97;5001793;28;20096;-63
2022/06/14 02:05:00;;;;;;;8.50;4.22;;;;;;;11.21;100.00;99292.13;4998778;28;20554;-63
2022/06/14 02:07:38;;;;;;;8.13;4.10;;;;;;;11.19;100.00;99297.78;4994312;28;20113;-63
2022/06/14 02:10:24;;;;;;;6.57;3.75;;;;;;;11.12;100.00;99297.69;5000454;28;20033;-63
2022/06/14 02:13:11;;;;;;;8.02;3.30;;;;;;;11.11;100.00;99303.31;4998460;28;20359;-64
2022/06/14 02:15:44;;;;;;;12.15;3.47;;;;;;;11.02;100.00;99289.06;5004667;28;20041;-63
2022/06/14 02:18:20;;;;;;;8.18;3.60;;;;;;;10.98;100.00;99290.50;5001065;28;20030;-63
2022/06/14 02:20:55;;;;;;;9.27;4.40;;;;;;;10.98;100.00;99295.91;5010116;28;20017;-63
2022/06/14 02:23:23;;;;;;;10.23;4.60;;;;;;;10.97;100.00;99295.06;5005275;28;20466;-63
2022/06/14 02:26:04;;;;;;;7.63;3.88;;;;;;;11.16;100.00;99293.59;5000167;28;20026;-63
2022/06/14 02:28:38;;;;;;;8.90;4.15;;;;;;;11.13;100.00;99293.97;5003618;28;20544;-63
2022/06/14 02:31:18;;;;;;;9.10;4.13;;;;;;;11.13;100.00;99299.38;5000532;28;20037;-63
2022/06/14 02:33:55;;;;;;;8.60;3.67;;;;;;;11.01;100.00;99294.69;5003409;28;20121;-63
2022/06/14 02:36:36;;;;;;;5.95;3.78;;;;;;;10.95;100.00;99294.44;5006768;28;20027;-63
2022/06/14 02:39:07;;;;;;;9.00;4.50;;;;;;;11.00;100.00;99291.13;4999727;28;20827;-63
2022/06/14 02:41:46;;;;;;;7.10;3.67;;;;;;;10.93;100.00;99287.53;5008517;28;20026;-63
2022/06/14 02:44:18;;;;;;;8.45;4.00;;;;;;;10.81;100.00;99284.50;5001937;28;20113;-63
2022/06/14 02:46:57;;;;;;;6.45;3.58;;;;;;;10.79;100.00;99291.13;5001607;28;20037;-63
2022/06/14 02:49:30;;;;;;;;;;;;;;;10.71;100.00;99290.22;4996419;28;20027;-63
2022/06/14 02:51:59;;;;;;;10.45;3.42;;;;;;;10.62;100.00;99291.38;5014580;28;19921;-63
2022/06/14 02:54:30;;;;;;;10.45;3.50;;;;;;;10.63;100.00;99290.34;5006341;28;20030;-63
2022/06/14 02:57:08;;;;;;;10.02;3.88;;;;;;;10.62;100.00;99294.09;5001199;28;20054;-63
2022/06/14 02:59:39;;;;;;;7.50;3.40;;;;;;;10.44;100.00;99286.38;5005745;28;20033;-63
2022/06/14 03:02:16;;;;;;;9.98;4.05;;;;;;;10.49;100.00;99292.06;5008094;28;20097;-64
2022/06/14 03:04:48;;;;;;;5.60;3.47;;;;;;;10.40;100.00;99295.94;4999535;28;20040;-63
2022/06/14 03:07:17;;;;;;;5.43;2.97;;;;;;;10.48;100.00;99290.41;5008145;28;20026;-63
2022/06/14 03:09:45;;;;;;;8.07;3.80;;;;;;;10.65;100.00;99296.41;5008224;28;20018;-63
2022/06/14 03:12:13;;;;;;;14.10;4.43;;;;;;;10.65;100.00;99299.09;5006991;28;20044;-63
2022/06/14 03:14:48;;;;;;;10.52;4.25;;;;;;;10.63;100.00;99293.03;5003145;28;20033;-63
2022/06/14 03:17:25;;;;;;;9.00;4.45;;;;;;;10.68;100.00;99304.13;5006415;28;20036;-63
2022/06/14 03:20:20;;;;;;;9.88;4.20;;;;;;;10.66;100.00;99295.38;5008139;28;20053;-63
2022/06/14 03:22:57;;;;;;;11.40;4.25;;;;;;;10.60;100.00;99309.66;4968855;28;20035;-64
2022/06/14 03:25:22;;;;;;;9.85;4.15;;;;;;;10.68;100.00;99301.44;5001094;28;20464;-64
2022/06/14 03:27:51;;;;;;;7.57;4.38;;;;;;;10.62;100.00;99313.03;5005390;28;20152;-64
2022/06/14 03:30:25;;;;;;;8.48;4.72;;;;;;;10.53;100.00;99314.16;5004221;28;20033;-64
2022/06/14 03:32:55;;;;;;;8.25;4.25;;;;;;;10.48;100.00;99305.81;5002204;28;20501;-63
2022/06/14 03:35:33;;;;;;;11.98;4.57;;;;;;;10.54;100.00;99313.16;5013844;28;20030;-63
2022/06/14 03:38:06;;;;;;;9.40;4.50;;;;;;;10.67;100.00;99305.16;5000664;28;20034;-63
2022/06/14 03:40:32;;;;;;;7.50;3.83;;;;;;;10.72;100.00;99283.78;5004268;28;20105;-63
2022/06/14 03:42:59;;;;;;;8.50;3.90;;;;;;;10.82;100.00;99294.31;5009307;28;20439;-64
2022/06/14 03:45:35;;;;;;;7.88;4.18;;;;;;;10.78;100.00;99294.88;5006348;28;20034;-63
2022/06/14 03:48:03;;;;;;;6.43;3.95;;;;;;;10.77;100.00;99293.19;5001235;28;20093;-64
2022/06/14 03:50:54;;;;;;;9.30;4.00;;;;;;;10.75;100.00;99290.69;5000734;28;20054;-64
2022/06/14 03:53:46;;;;;;;7.03;3.88;;;;;;;10.70;100.00;99285.84;4995517;28;20038;-63
2022/06/14 03:56:22;;;;;;;7.13;3.67;;;;;;;10.66;100.00;99289.13;4998617;28;20108;-63
2022/06/14 03:59:08;;;;;;;7.55;3.40;;;;;;;10.64;100.00;99286.63;5003148;28;20267;-63
2022/06/14 04:01:46;;;;;;;6.13;3.60;;;;;;;10.74;100.00;99295.25;5013066;28;20108;-61
2022/06/14 04:04:24;;;;;;;5.50;3.67;;;;;;;10.87;100.00;99294.56;5007425;28;20037;-62
2022/06/14 04:07:11;;;;;;;10.88;3.72;;;;;;;10.82;100.00;99293.44;5005409;28;20474;-62
2022/06/14 04:09:52;;;;;;;8.82;3.42;;;;;;;10.87;100.00;99291.84;5007335;28;20030;-62
2022/06/14 04:12:26;;;;;;;12.20;3.78;;;;;;;10.90;100.00;99294.16;5006256;28;20029;-62
2022/06/14 04:15:19;;;;;;;12.40;3.50;;;;;;;10.92;100.00;99294.78;5008022;28;20042;-62
2022/06/14 04:17:48;;;;;;;9.85;3.75;;;;;;;11.03;100.00;99290.75;5004423;28;20026;-62
2022/06/14 04:20:31;;;;;;;14.30;4.80;;;;;;;11.17;100.00;99299.81;5010165;28;20025;-62
2022/06/14 04:23:02;;;;;;;8.77;4.00;;;;;;;11.22;100.00;99299.25;5001288;28;20050;-62
2022/06/14 04:25:36;;;;;;;6.13;3.60;;;;;;;11.31;100.00;99296.19;5005605;28;20083;-61
2022/06/14 04:28:17;;;;;;;11.55;4.70;;;;;;;11.52;100.00;99299.88;4995352;28;20049;-62
2022/06/14 04:31:19;;;;;;;7.28;3.40;;;;;;;11.63;100.00;99305.63;4996837;28;20109;-62
2022/06/14 04:34:12;;;;;;;11.77;3.90;;;;;;;11.71;100.00;99301.06;4989850;28;20046;-62
2022/06/14 04:36:54;;;;;;;7.38;3.92;;;;;;;11.86;100.00;99296.41;5026240;28;20022;-62
2022/06/14 04:39:25;;;;;;;5.07;3.72;;;;;;;11.94;100.00;99304.34;5004202;28;20056;-62
2022/06/14 04:42:12;;;;;;;6.97;3.88;;;;;;;12.02;100.00;99293.34;5007063;28;20049;-63
2022/06/14 04:45:23;;;;;;;6.90;3.63;;;;;;;12.14;100.00;99298.22;4997638;28;20064;-62
2022/06/14 04:47:59;;;;;;;11.35;4.03;;;;;;;12.24;100.00;99295.97;5005146;28;20080;-62
2022/06/14 04:50:40;;;;;;;6.30;3.70;;;;;;;12.41;100.00;99300.00;5001849;28;20112;-63
2022/06/14 04:53:22;;;;;;;5.68;3.78;;;;;;;12.39;100.00;99301.25;5005304;28;20076;-62
2022/06/14 04:56:11;;;;;;;10.95;4.03;;;;;;;12.39;100.00;99310.25;5007885;28;20037;-62
2022/06/14 04:58:50;;;;;;;5.63;3.85;;;;;;;12.54;100.00;99301.91;5009263;28;20057;-63
2022/06/14 05:01:19;;;;;;;;;;;;;;;12.68;100.00;99291.94;5001317;28;20038;-64
2022/06/14 05:03:55;;;;;;;9.50;4.70;;;;;;;12.88;100.00;99290.09;5004376;28;20388;-63
2022/06/14 05:06:44;;;;;;;8.88;5.20;;;;;;;13.06;100.00;99291.38;5001375;28;20517;-63
2022/06/14 05:09:44;;;;;;;9.07;4.60;;;;;;;13.20;100.00;99297.66;5002493;28;20052;-62
2022/06/14 05:12:31;;;;;;;7.70;4.20;;;;;;;13.48;100.00;99298.31;5006537;28;20072;-61
2022/06/14 05:15:05;;;;;;;8.43;3.78;;;;;;;13.67;100.00;99296.63;5019386;28;20046;-61
2022/06/14 05:17:45;;;;;;;8.05;4.13;;;;;;;13.80;100.00;99290.31;5010921;28;20022;-62
2022/06/14 05:20:39;;;;;;;12.15;4.10;;;;;;;13.80;100.00;99283.00;5009935;28;20497;-63
2022/06/14 05:23:15;;;;;;;6.63;4.10;;;;;;;13.86;100.00;99289.50;4999824;28;20026;-63
2022/06/14 05:25:48;;;;;;;6.22;3.65;;;;;;;14.03;100.00;99273.53;5001943;28;20026;-63
2022/06/14 05:28:19;;;;;;;7.15;3.75;;;;;;;14.35;100.00;99284.50;4996308;28;20482;-63
2022/06/14 05:30:55;;;;;;;9.63;3.83;;;;;;;14.34;100.00;99288.28;5004195;28;20038;-64
2022/06/14 05:33:48;;;;;;;5.32;3.67;;;;;;;14.34;100.00;99289.13;5007356;28;20117;-63
2022/06/14 05:36:29;;;;;;;5.85;3.75;;;;;;;14.48;100.00;99290.72;5004160;28;20034;-63
2022/06/14 05:39:12;;;;;;;10.07;4.10;;;;;;;14.59;100.00;99289.25;5007525;28;20025;-63
2022/06/14 05:41:45;;;;;;;9.27;3.95;;;;;;;15.04;100.00;99289.19;5008936;28;20045;-62
2022/06/14 05:44:32;;;;;;;9.65;3.70;;;;;;;15.22;100.00;99284.84;5006884;28;20055;-62
2022/06/14 05:47:09;;;;;;;5.50;3.25;;;;;;;15.47;100.00;99291.13;4999133;28;20057;-63
2022/06/14 05:49:41;;;;;;;8.25;3.33;;;;;;;15.60;100.00;99295.66;5001536;28;20032;-63
2022/06/14 05:52:21;;;;;;;8.40;3.67;;;;;;;15.73;98.84;99289.25;5006141;28;20075;-63
2022/06/14 05:54:57;;;;;;;8.50;3.58;;;;;;;15.82;97.30;99292.53;4998069;28;20042;-64
2022/06/14 05:57:34;;;;;;;8.68;3.65;;;;;;;16.15;93.54;99290.28;4998492;28;20030;-62
2022/06/14 06:00:06;;;;;;;11.35;3.38;;;;;;;16.34;91.26;99296.56;5003127;28;20142;-62
2022/06/14 06:02:47;;;;;;;7.18;3.50;;;;;;;16.64;94.12;99295.78;5003364;28;20030;-62
2022/06/14 06:05:33;;;;;;;9.80;3.60;;;;;;;17.07;90.35;99292.03;5001190;28;20026;-63
2022/06/14 06:08:08;;;;;;;8.43;3.20;;;;;;;17.38;85.40;99299.09;5005768;28;20113;-63
2022/06/14 06:10:39;;;;;;;5.82;2.90;;;;;;;17.52;83.27;99289.59;5009221;28;20189;-62
2022/06/14 06:13:16;;;;;;;6.03;3.08;;;;;;;17.69;79.26;99289.75;5006691;28;20069;-62
2022/06/14 06:15:50;;;;;;;4.15;2.63;;;;;;;17.89;75.89;99283.09;5002811;28;20034;-63
2022/06/14 06:18:40;;;;;;;5.65;2.83;;;;;;;18.09;74.00;99279.97;5006614;28;20063;-63
2022/06/14 06:21:18;;;;;;;12.38;3.22;;;;;;;18.22;73.39;99279.72;5007983;28;20038;-63
2022/06/14 06:23:50;;;;;;;8.85;3.17;;;;;;;18.53;73.37;99280.34;5006688;28;20096;-63
2022/06/14 06:26:20;;;;;;;8.63;3.38;;;;;;;18.59;72.69;99277.44;5004100;28;20064;-63
2022/06/14 06:28:54;;;;;;;5.13;2.83;;;;;;;18.89;69.02;99272.81;5006443;28;20037;-63
2022/06/14 06:31:30;;;;;;;6.78;3.65;;;;;;;19.11;69.25;99268.28;5007072;28;20022;-65
2022/06/14 06:33:58;;;;;;;6.47;3.17;;;;;;;19.25;66.90;99271.53;5007069;28;20397;-63
2022/06/14 06:36:47;;;;;;;4.93;3.17;;;;;;;19.13;65.19;99262.56;4997648;28;20022;-63
2022/06/14 06:39:37;;;;;;;10.57;3.60;;;;;;;19.09;68.71;99267.72;5005053;28;20037;-63
2022/06/14 06:42:10;;;;;;;8.13;3.38;;;;;;;19.62;67.23;99279.28;5001545;28;20057;-64
2022/06/14 06:44:50;;;;;;;6.75;2.90;;;;;;;20.24;64.42;99270.84;5007432;28;20068;-64
2022/06/14 06:47:27;;;;;;;8.02;3.00;;;;;;;20.71;62.27;99264.00;4999097;28;20045;-64
2022/06/14 06:50:03;;;;;;;5.47;2.60;;;;;;;21.14;59.42;99273.22;5003856;28;20474;-63
2022/06/14 06:53:11;;;;;;;6.97;2.47;;;;;;;21.52;57.11;99265.88;5005586;28;20434;-64
2022/06/14 06:55:36;;;;;;;9.02;3.00;;;;;;;22.20;54.16;99260.56;5002021;28;20131;-62
2022/06/14 06:58:08;;;;;;;5.43;3.10;;;;;;;22.47;53.73;99261.19;4997636;28;20035;-61
2022/06/14 07:00:37;;;;;;;6.72;2.88;;;;;;;23.40;50.71;99257.53;5003082;28;20029;-62
2022/06/14 07:03:12;;;;;;;8.93;3.15;;;;;;;24.39;48.02;99261.75;5002297;28;20026;-62
2022/06/14 07:05:38;;;;;;;8.43;2.85;;;;;;;25.08;45.30;99260.03;5006706;28;20021;-63
2022/06/14 07:08:11;;;;;;;7.50;2.85;;;;;;;23.79;46.38;99272.72;5009678;28;20025;-61
2022/06/14 07:10:54;;;;;;;6.10;2.70;;;;;;;26.78;41.50;99258.03;5003308;28;20077;-61
2022/06/14 07:13:38;;;;;;;5.35;3.05;;;;;;;29.27;37.09;99250.00;4997426;28;20068;-61
2022/06/14 07:16:09;;;;;;;10.27;2.63;;;;;;;30.82;35.50;99258.63;4994632;28;20033;-61
2022/06/14 07:18:45;;;;;;;6.18;2.67;;;;;;;31.46;32.80;99256.00;5008765;28;20017;-62
2022/06/14 07:21:36;;;;;;;3.67;2.50;;;;;;;32.57;30.87;99248.72;5000072;28;20026;-62
2022/06/14 07:24:10;;;;;;;8.18;3.25;;;;;;;32.29;31.62;99243.56;5013781;28;20021;-61
2022/06/14 07:26:58;;;;;;;10.13;2.80;;;;;;;32.50;32.06;99247.28;5003845;28;20053;-61
2022/06/14 07:29:35;;;;;;;5.47;2.60;;;;;;;34.00;29.45;99259.69;5005175;28;20033;-61
2022/06/14 07:32:20;;;;;;;5.43;2.22;;;;;;;34.86;28.15;99246.47;5001574;28;20022;-61
2022/06/14 07:34:47;;;;;;;5.25;2.42;;;;;;;33.60;28.91;99251.88;5005454;28;20034;-62
2022/06/14 07:37:36;;;;;;;6.55;2.42;;;;;;;34.59;28.81;99250.84;5004094;28;20021;-62
2022/06/14 07:40:02;;;;;;;5.80;2.40;;;;;;;34.54;28.65;99250.25;5007898;28;20044;-63
2022/06/14 07:42:49;;;;;;;6.82;2.50;;;;;;;35.00;27.46;99248.88;5009857;28;20029;-62
2022/06/14 07:45:18;;;;;;;8.27;2.83;;;;;;;35.08;27.10;99258.38;5003785;28;20075;-60
2022/06/14 07:48:08;;;;;;;4.68;2.25;;;;;;;34.69;26.48;99243.94;5001832;28;20119;-60
2022/06/14 07:50:39;;;;;;;5.47;2.30;;;;;;;34.31;27.95;99249.91;4999399;28;20440;-61
2022/06/14 07:53:41;;;;;;;7.43;2.90;;;;;;;34.70;26.70;99254.00;5006339;28;20036;-60
2022/06/14 07:56:15;;;;;;;5.07;2.13;;;;;;;35.59;26.56;99246.63;4996250;28;20125;-60
2022/06/14 07:58:50;;;;;;;4.18;2.08;;;;;;;35.73;26.36;99235.72;5021808;23;20543;-75
2022/06/14 08:01:25;;;;;;;5.60;2.40;;;;;;;35.17;25.30;99227.31;5005362;28;20116;-74
2022/06/14 08:04:02;;;;;;;7.72;2.50;;;;;;;35.29;26.32;99235.69;5008901;28;20025;-75
2022/06/14 08:06:43;;;;;;;6.70;2.30;;;;;;;35.70;26.10;99244.91;5003364;28;20049;-75
2022/06/14 08:09:28;;;;;;;5.97;2.13;;;;;;;35.42;25.70;99240.06;5000672;28;20432;-75
2022/06/14 08:11:59;;;;;;;5.38;2.30;;;;;;;34.59;26.49;99247.25;4992012;28;20105;-72
2022/06/14 08:14:35;;;;;;;7.95;1.98;;;;;;;36.15;25.92;99240.84;4992640;28;20037;-75
2022/06/14 08:17:02;;;;;;;6.00;2.13;;;;;;;36.66;25.60;99229.63;4990110;28;20395;-74
2022/06/14 08:19:36;;;;;;;4.45;2.25;;;;;;;36.94;23.89;99237.91;4987195;28;20026;-71
2022/06/14 08:22:07;;;;;;;5.28;2.20;;;;;;;36.55;24.57;99234.19;4989141;28;20510;-70
2022/06/14 08:24:41;;;;;;;14.65;3.30;;;;;;;36.45;24.48;99234.75;4987074;28;20031;-69
2022/06/14 08:27:22;;;;;;;6.18;2.22;;;;;;;36.09;24.50;99239.50;4989645;28;20054;-71
2022/06/14 08:30:10;;;;;;;5.18;2.22;;;;;;;36.93;24.75;99227.81;4993839;28;20068;-72
2022/06/14 08:32:57;;;;;;;8.73;2.20;;;;;;;37.17;24.08;99232.38;4981098;28;20050;-72
2022/06/14 08:35:31;;;;;;;6.00;1.90;;;;;;;36.56;25.17;99233.03;4990517;28;20074;-72
2022/06/14 08:38:07;;;;;;;8.30;2.63;;;;;;;36.13;24.21;99234.75;4984095;28;20105;-72
2022/06/14 08:40:58;;;;;;;7.63;2.30;;;;;;;37.43;23.50;99230.88;4986660;28;20034;-71
2022/06/14 08:43:38;;;;;;;5.05;2.42;;;;;;;36.53;23.71;99228.91;4985167;28;20027;-72
2022/06/14 08:46:19;;;;;;;5.18;2.20;;;;;;;37.00;23.14;99235.63;4992815;28;20026;-72
2022/06/14 08:49:07;;;;;;;4.72;2.22;;;;;;;35.76;25.14;99233.03;4995000;28;20030;-72
2022/06/14 08:51:41;;;;;;;8.23;2.13;;;;;;;35.60;24.59;99211.66;4993545;28;20026;-72
2022/06/14 08:54:27;;;;;;;4.32;1.98;;;;;;;36.37;23.63;99231.75;4990967;28;20065;-72
2022/06/14 08:57:13;;;;;;;5.53;2.30;;;;;;;35.82;24.54;99225.13;4989346;28;20034;-72
2022/06/14 08:59:57;;;;;;;6.22;2.40;;;;;;;35.88;25.40;99220.03;4992468;28;20112;-72
2022/06/14 09:02:47;;;;;;;4.97;2.22;;;;;;;35.40;25.29;99216.28;4986710;28;20153;-72
2022/06/14 09:05:36;;;;;;;7.03;2.55;;;;;;;34.77;24.87;99200.81;4982345;28;20518;-72
2022/06/14 09:08:07;;;;;;;6.72;2.20;;;;;;;36.34;24.02;99218.41;4980618;28;20045;-72
2022/06/14 09:10:42;;;;;;;7.07;2.30;;;;;;;34.34;25.67;99221.09;4991550;28;20480;-72
2022/06/14 09:13:22;;;;;;;6.18;2.10;;;;;;;34.62;24.83;99213.63;4991399;28;20033;-72
2022/06/14 09:16:06;;;;;;;10.02;2.47;;;;;;;35.17;24.22;99204.81;4990502;28;20062;-72
2022/06/14 09:18:59;;;;;;;7.18;2.38;;;;;;;33.84;25.40;99214.63;4986827;28;20054;-72
2022/06/14 09:21:32;;;;;;;5.55;2.38;;;;;;;35.92;24.13;99201.22;4985961;28;20037;-71
2022/06/14 09:24:16;;;;;;;5.93;1.98;;;;;;;34.95;25.84;99195.72;4989191;28;20046;-71
2022/06/14 09:26:56;;;;;;;6.95;2.35;;;;;;;34.84;25.75;99198.19;4987337;28;20034;-71
2022/06/14 09:29:30;;;;;;;6.25;1.95;;;;;;;35.12;25.09;99192.63;4989024;28;20144;-71
2022/06/14 09:32:30;;;;;;;6.20;2.58;;;;;;;34.91;24.93;99197.59;4984909;28;20117;-67
2022/06/14 09:35:15;;;;;;;12.40;2.58;;;;;;;34.01;25.15;99174.28;4990757;28;20037;-71
2022/06/14 09:38:06;;;;;;;4.10;1.80;;;;;;;35.42;24.45;99181.00;4991412;28;20030;-71
2022/06/14 09:40:45;;;;;;;5.03;2.30;;;;;;;36.42;22.52;99175.13;4988710;28;20057;-72
2022/06/14 09:43:36;;;;;;;4.85;1.90;;;;;;;35.31;23.78;99188.31;4991618;28;20391;-71
2022/06/14 09:46:32;;;;;;;5.75;2.17;;;;;;;35.78;24.24;99179.97;4992212;28;20126;-71
2022/06/14 09:49:06;;;;;;;4.60;1.98;;;;;;;36.43;23.27;99181.56;4979512;28;20404;-71
2022/06/14 09:52:09;;;;;;;5.05;2.05;;;;;;;35.78;23.44;99185.59;4991124;28;20032;-71
2022/06/14 09:54:51;;;;;;;4.22;1.55;;;;;;;35.75;23.58;99177.88;4984376;28;20026;-71
2022/06/14 09:57:35;;;;;;;3.97;2.08;;;;;;;35.79;23.52;99178.00;4990572;28;20033;-71
2022/06/14 10:00:21;;;;;;;5.13;1.92;;;;;;;35.71;22.99;99178.97;4985771;28;20018;-71
2022/06/14 10:03:08;;;;;;;3.70;1.73;;;;;;;37.04;22.19;99166.00;4992571;28;20030;-71
2022/06/14 10:05:52;;;;;;;4.33;2.00;;;;;;;34.43;24.21;99172.06;4988974;28;20026;-71
2022/06/14 10:08:36;;;;;;;4.95;1.90;;;;;;;36.92;21.65;99166.13;4993942;28;20045;-71
2022/06/14 10:11:20;;;;;;;5.47;1.80;;;;;;;36.18;22.62;99164.06;4991924;28;20031;-71
2022/06/14 10:13:57;;;;;;;3.80;2.10;;;;;;;36.02;23.63;99149.16;4990986;28;20030;-71
2022/06/14 10:16:53;;;;;;;4.72;1.85;;;;;;;36.51;23.34;99149.53;4991537;28;20037;-71
2022/06/14 10:20:06;;;;;;;3.63;1.95;;;;;;;36.78;23.58;99147.72;4982693;28;20050;-71
2022/06/14 10:22:50;;;;;;;4.00;1.80;;;;;;;36.28;22.79;99140.97;4972438;28;20522;-72
2022/06/14 10:28:11;;;;;;;4.35;2.05;;;;;;;36.67;22.59;99138.22;4983126;28;20453;-72
2022/06/14 10:28:52;;;;;;;5.97;1.90;;;;;;;36.57;23.00;99145.25;4983249;28;20070;-71
2022/06/14 10:31:33;;;;;;;3.92;1.67;;;;;;;37.35;21.96;99144.44;4972278;28;20030;-71
2022/06/14 10:34:18;;;;;;;5.20;1.70;;;;;;;37.41;21.82;99140.09;4985409;28;20090;-71
2022/06/14 10:36:59;;;;;;;3.50;1.75;;;;;;;36.17;22.51;99148.34;4983942;28;20030;-71
2022/06/14 10:39:39;;;;;;;5.07;1.63;;;;;;;35.82;23.37;99123.75;4985881;28;20026;-71
2022/06/14 10:42:15;;;;;;;6.63;2.00;;;;;;;36.69;22.76;99133.03;4990428;28;20018;-71
2022/06/14 10:44:53;;;;;;;4.20;1.80;;;;;;;36.93;21.65;99133.94;4986081;28;20030;-71
2022/06/14 10:47:44;;;;;;;5.80;1.80;;;;;;;36.80;20.42;99127.63;4988173;28;20030;-71
2022/06/14 10:50:47;;;;;;;4.07;1.92;;;;;;;36.30;22.43;99130.16;4986629;28;20022;-71
2022/06/14 10:53:46;;;;;;;5.88;1.40;;;;;;;36.49;22.99;99129.34;4983107;28;20034;-71
2022/06/14 10:56:35;;;;;;;3.47;1.92;;;;;;;36.36;23.55;99125.03;4982230;28;20145;-71
2022/06/14 10:59:34;;;;;;;3.83;1.83;;;;;;;36.72;22.44;99112.56;4980754;28;20085;-71
2022/06/14 11:02:25;;;;;;;6.70;1.70;;;;;;;36.41;23.73;99107.84;4984783;28;20041;-71
2022/06/14 11:05:01;;;;;;;7.25;1.92;;;;;;;36.77;22.75;99109.44;4991545;28;20030;-71
2022/06/14 11:07:54;;;;;;;3.80;1.90;;;;;;;36.70;22.06;99105.66;4987341;28;20602;-71
2022/06/14 11:10:38;;;;;;;3.75;1.67;;;;;;;35.32;23.92;99105.59;4990762;28;20028;-71
2022/06/14 11:13:22;;;;;;;3.22;1.52;;;;;;;35.87;24.33;99103.78;4982393;28;20057;-71
2022/06/14 11:15:53;;;;;;;6.78;1.98;;;;;;;36.12;23.84;99109.19;4988725;28;21370;-70
2022/06/14 11:18:30;;;;;;;5.82;1.83;;;;;;;37.03;23.33;99114.44;4984294;28;20440;-73
2022/06/14 11:21:17;;;;;;;6.40;2.05;;;;;;;37.19;22.38;99103.03;4983912;28;20018;-70
2022/06/14 11:24:21;;;;;;;6.27;2.10;;;;;;;37.03;22.12;99099.50;4987821;28;20045;-70
2022/06/14 11:26:58;;;;;;;6.03;1.83;;;;;;;36.83;22.84;99099.47;4973500;28;20289;-70
2022/06/14 11:29:47;;;;;;;3.22;1.75;;;;;;;37.43;23.59;99086.94;4987613;28;20519;-71
2022/06/14 11:32:36;;;;;;;3.03;1.70;;;;;;;36.73;23.80;99083.16;4987743;28;20049;-71
2022/06/14 11:35:13;;;;;;;4.82;2.03;;;;;;;37.65;21.98;99099.41;4986429;28;20080;-71
2022/06/14 11:38:01;;;;;;;4.60;1.65;;;;;;;36.67;23.08;99093.13;4987794;28;20041;-71
2022/06/14 11:40:33;;;;;;;6.45;1.90;;;;;;;37.13;23.37;99087.63;4984927;28;20026;-71
2022/06/14 11:43:10;;;;;;;5.45;1.80;;;;;;;37.15;22.68;99088.03;4984648;28;20022;-71
2022/06/14 11:45:48;;;;;;;3.92;2.22;;;;;;;36.90;22.59;99089.56;4988347;28;20072;-72
2022/06/14 11:48:33;;;;;;;4.15;1.77;;;;;;;37.29;22.12;99073.38;4987799;28;20026;-71
2022/06/14 11:51:31;;;;;;;4.40;1.85;;;;;;;37.78;20.92;99080.25;4987444;28;20042;-72
2022/06/14 11:54:05;;;;;;;;;;;;;;;36.14;23.90;99081.50;4983181;28;20069;-71
2022/06/14 11:56:57;;;;;;;5.43;2.10;;;;;;;37.71;21.93;99080.97;4991033;28;19918;-71
2022/06/14 11:59:38;;;;;;;5.05;1.88;;;;;;;36.57;23.34;99071.16;4983463;28;20041;-71
2022/06/14 12:02:17;;;;;;;3.55;1.80;;;;;;;37.01;22.31;99071.63;4983221;28;20037;-71
2022/06/14 12:04:48;;;;;;;6.65;2.17;;;;;;;37.12;22.47;99065.41;4991680;28;20038;-66
2022/06/14 12:07:27;;;;;;;7.15;2.15;;;;;;;38.21;20.64;99050.66;4988094;28;20041;-77
2022/06/14 12:10:05;;;;;;;7.78;2.40;;;;;;;36.38;23.76;99067.13;4990565;28;20030;-73
2022/06/14 12:12:59;;;;;;;4.50;2.10;;;;;;;36.63;23.29;99055.59;4985680;28;20476;-73
2022/06/14 12:15:36;;;;;;;3.53;1.63;;;;;;;37.13;24.02;99050.94;4984237;28;20076;-73
2022/06/14 12:18:04;;;;;;;4.32;2.15;;;;;;;37.04;22.02;99053.97;5003443;28;20458;-74
2022/06/14 12:20:35;;;;;;;4.03;1.90;;;;;;;37.85;22.14;99049.31;4991789;28;20033;-73
2022/06/14 12:23:21;;;;;;;3.33;1.70;;;;;;;37.83;21.74;99048.88;4990669;28;20034;-73
2022/06/14 12:29:01;;;;;;;4.55;1.73;;;;;;;37.57;22.24;99038.38;4986082;28;20197;-73